Time;durP1;ratioP1;P1;durP2;ratioP2;P2;SDS_P1;SDS_P2;PMS_P1;PMS_P2;Temp;Humidity;BMP_temperature;BMP_pressure;BME280_temperature;BME280_humidity;BME280_pressure;Samples;Min_cycle;Max_cycle;Signal;HPM_P1;HPM_P2
2021/05/08 00:00:59;;;;;;;6.80;6.10;;;;;;;3.96;88.30;99029.81;4729691;29;104803;-77
2021/05/08 00:03:26;;;;;;;7.60;6.83;;;;;;;3.98;86.57;99032.38;4736267;29;104036;-76
2021/05/08 00:05:53;;;;;;;7.90;7.03;;;;;;;3.97;86.83;99031.53;4738356;29;102857;-77
2021/05/08 00:08:20;;;;;;;7.77;6.73;;;;;;;3.88;86.98;99034.50;4737446;29;102697;-77
2021/05/08 00:10:48;;;;;;;11.40;7.83;;;;;;;3.72;88.26;99040.41;4745737;29;103956;-77
2021/05/08 00:13:15;;;;;;;10.20;6.83;;;;;;;3.75;88.63;99035.91;4726099;29;103932;-75
2021/05/08 00:15:42;;;;;;;7.30;6.27;;;;;;;3.91;87.00;99033.53;4720624;29;103017;-77
2021/05/08 00:18:09;;;;;;;9.67;8.40;;;;;;;3.70;86.76;99030.03;4728250;29;102869;-78
2021/05/08 00:20:37;;;;;;;10.00;7.77;;;;;;;3.32;90.46;99030.63;4722034;29;103972;-77
2021/05/08 00:23:04;;;;;;;8.70;7.43;;;;;;;3.47;90.04;99035.28;4724720;29;103721;-77
2021/05/08 00:25:31;;;;;;;6.40;5.80;;;;;;;3.65;88.89;99029.34;4724117;29;103082;-77
2021/05/08 00:27:58;;;;;;;9.07;6.93;;;;;;;3.79;88.19;99027.03;4708986;29;103009;-77
2021/05/08 00:30:25;;;;;;;8.17;7.30;;;;;;;3.59;88.13;99039.19;4713455;29;103081;-78
2021/05/08 00:32:53;;;;;;;9.40;8.53;;;;;;;3.12;90.72;99039.22;4710992;29;103297;-76
2021/05/08 00:35:20;;;;;;;10.67;8.37;;;;;;;3.14;91.40;99040.03;4719978;29;103126;-77
2021/05/08 00:37:47;;;;;;;8.03;7.23;;;;;;;3.08;92.34;99042.88;4720332;29;102973;-76
2021/05/08 00:40:15;;;;;;;8.47;7.20;;;;;;;2.82;93.75;99041.19;4718308;29;103842;-76
2021/05/08 00:42:42;;;;;;;9.13;7.10;;;;;;;2.97;93.70;99038.94;4719635;29;104398;-78
2021/05/08 00:45:10;;;;;;;7.70;7.00;;;;;;;2.99;93.27;99037.13;4720326;29;102931;-78
2021/05/08 00:47:42;;;;;;;8.60;6.73;;;;;;;3.15;93.05;99038.25;4720211;29;102965;-76
2021/05/08 00:50:13;;;;;;;8.50;7.53;;;;;;;3.25;91.55;99029.19;4715748;29;104374;-77
2021/05/08 00:52:40;;;;;;;5.97;5.40;;;;;;;3.49;91.26;99025.63;4721285;29;103842;-76
2021/05/08 00:55:08;;;;;;;9.23;7.97;;;;;;;3.32;90.04;99025.41;4722001;29;102668;-76
2021/05/08 00:57:35;;;;;;;11.87;7.87;;;;;;;3.21;91.58;99028.44;4719849;29;103384;-79
2021/05/08 01:00:06;;;;;;;8.53;7.53;;;;;;;3.29;91.83;99025.53;4719459;29;104171;-78
2021/05/08 01:02:35;;;;;;;9.33;8.43;;;;;;;3.17;92.26;99028.63;4698581;29;103465;-75
2021/05/08 01:05:04;;;;;;;9.23;8.13;;;;;;;3.16;93.33;99029.53;4719310;29;103039;-76
2021/05/08 01:07:33;;;;;;;9.10;8.20;;;;;;;3.28;92.83;99029.06;4712245;29;102690;-76
2021/05/08 01:10:00;;;;;;;7.47;6.67;;;;;;;3.47;91.84;99035.28;4719027;29;103878;-77
2021/05/08 01:12:28;;;;;;;7.70;6.97;;;;;;;3.52;91.00;99035.97;4708538;29;108736;-75
2021/05/08 01:14:55;;;;;;;8.70;7.27;;;;;;;3.60;90.43;99028.66;4736673;29;103220;-76
2021/05/08 01:17:23;;;;;;;9.70;7.30;;;;;;;3.61;90.71;99038.22;4721645;29;103097;-76
2021/05/08 01:19:50;;;;;;;7.60;6.90;;;;;;;3.56;91.36;99040.16;4737424;29;103963;-75
2021/05/08 01:22:18;;;;;;;9.63;7.97;;;;;;;3.60;91.40;99040.88;4721318;29;103197;-77
2021/05/08 01:24:46;;;;;;;7.13;6.53;;;;;;;3.64;91.66;99027.66;4721529;29;103179;-78
2021/05/08 01:27:14;;;;;;;8.00;7.20;;;;;;;3.74;90.98;99030.72;4737502;29;103135;-75
2021/05/08 01:29:41;;;;;;;6.97;6.23;;;;;;;3.81;90.36;99030.44;4721179;29;104247;-75
2021/05/08 01:32:08;;;;;;;7.07;6.37;;;;;;;3.80;90.14;99028.75;4728300;29;103031;-76
2021/05/08 01:34:35;;;;;;;8.03;6.83;;;;;;;3.60;90.60;99026.06;4737468;29;103197;-77
2021/05/08 01:37:03;;;;;;;7.07;6.37;;;;;;;3.74;89.78;99028.97;4721411;29;103655;-79
2021/05/08 01:39:31;;;;;;;8.47;7.63;;;;;;;3.84;89.71;99030.34;4736654;29;103796;-75
2021/05/08 01:41:59;;;;;;;7.53;6.83;;;;;;;3.95;89.36;99022.91;4736741;29;103723;-75
2021/05/08 01:44:26;;;;;;;9.03;8.03;;;;;;;4.01;88.84;99022.63;4736410;29;102859;-77
2021/05/08 01:46:54;;;;;;;8.40;7.60;;;;;;;3.96;88.92;99021.13;4737499;29;102947;-77
2021/05/08 01:49:22;;;;;;;8.83;7.83;;;;;;;4.06;88.63;99015.47;4720420;29;104920;-76
2021/05/08 01:51:50;;;;;;;7.67;6.87;;;;;;;4.07;88.91;99017.16;4720309;29;103978;-76
2021/05/08 01:54:18;;;;;;;7.70;7.00;;;;;;;4.10;87.84;99006.56;4737239;29;103439;-76
2021/05/08 01:56:46;;;;;;;7.93;7.13;;;;;;;4.06;88.49;99004.16;4738105;29;103093;-76
2021/05/08 01:59:18;;;;;;;7.40;6.70;;;;;;;4.06;88.46;99010.25;4735448;29;105062;-76
2021/05/08 02:01:46;;;;;;;7.90;6.03;;;;;;;4.18;88.05;98997.56;4715607;29;103774;-75
2021/05/08 02:04:13;;;;;;;8.87;7.97;;;;;;;4.13;87.34;98992.53;4735262;29;103386;-75
2021/05/08 02:06:50;;;;;;;7.53;6.30;;;;;;;4.16;86.81;98994.16;4720172;29;103324;-75
2021/05/08 02:09:21;;;;;;;5.80;5.30;;;;;;;4.15;87.17;98998.56;4737299;29;103915;-74
2021/05/08 02:11:55;;;;;;;7.43;6.73;;;;;;;4.08;87.04;98992.72;4725312;29;103586;-77
2021/05/08 02:14:23;;;;;;;6.67;5.97;;;;;;;4.07;87.64;98991.00;4734872;29;103107;-79
2021/05/08 02:16:50;;;;;;;7.70;6.90;;;;;;;4.08;86.96;98995.34;4735802;29;103296;-76
2021/05/08 02:19:19;;;;;;;8.67;7.77;;;;;;;4.02;87.76;98994.72;4736026;29;104011;-77
2021/05/08 02:21:46;;;;;;;7.83;6.70;;;;;;;4.07;87.49;98990.16;4735813;29;103482;-77
2021/05/08 02:24:13;;;;;;;7.27;6.53;;;;;;;3.99;88.18;98990.47;4738071;29;103020;-77
2021/05/08 02:26:40;;;;;;;8.17;7.37;;;;;;;3.88;88.10;98989.22;4734944;29;103050;-77
2021/05/08 02:29:08;;;;;;;7.23;6.53;;;;;;;3.91;88.01;98989.09;4734741;29;103899;-78
2021/05/08 02:31:35;;;;;;;9.30;7.43;;;;;;;3.88;87.66;98984.84;4734903;29;103770;-77
2021/05/08 02:34:04;;;;;;;8.53;7.10;;;;;;;3.93;88.60;98992.50;4735497;29;102996;-77
2021/05/08 02:36:31;;;;;;;7.53;6.17;;;;;;;4.00;88.44;98988.72;4719587;29;102960;-78
2021/05/08 02:38:58;;;;;;;6.73;6.00;;;;;;;4.05;87.33;98999.84;4735286;29;103869;-77
2021/05/08 02:41:25;;;;;;;8.57;5.97;;;;;;;4.06;87.14;98984.09;4734967;29;103766;-78
2021/05/08 02:43:52;;;;;;;8.43;6.50;;;;;;;4.09;87.54;98991.81;4734150;29;103054;-75
2021/05/08 02:46:20;;;;;;;8.43;6.97;;;;;;;4.05;87.36;98982.38;4734274;29;102819;-76
2021/05/08 02:48:48;;;;;;;8.10;7.33;;;;;;;4.07;87.14;98987.53;4734921;29;103990;-77
2021/05/08 02:51:15;;;;;;;9.90;7.20;;;;;;;4.08;87.34;98987.50;4733835;29;103092;-77
2021/05/08 02:53:42;;;;;;;8.03;6.87;;;;;;;3.96;88.25;98985.38;4738923;29;102772;-75
2021/05/08 02:56:11;;;;;;;8.47;6.40;;;;;;;4.04;87.88;98988.53;4734348;29;102980;-77
2021/05/08 02:58:42;;;;;;;7.87;7.07;;;;;;;3.92;88.24;98985.56;4734954;29;103417;-75
2021/05/08 03:01:09;;;;;;;6.80;6.10;;;;;;;3.99;87.22;98987.00;4746685;29;103331;-77
2021/05/08 03:03:37;;;;;;;7.43;6.30;;;;;;;3.99;86.94;98982.63;4723284;29;103147;-78
2021/05/08 03:06:05;;;;;;;7.93;6.33;;;;;;;3.96;87.48;98989.75;4729083;29;103468;-78
2021/05/08 03:08:35;;;;;;;6.43;5.43;;;;;;;3.99;86.58;98984.41;4730277;29;105741;-77
2021/05/08 03:11:08;;;;;;;7.10;5.67;;;;;;;3.95;86.42;98985.44;4732528;29;106685;-77
2021/05/08 03:13:35;;;;;;;7.87;6.50;;;;;;;3.89;86.08;98978.72;4731456;29;103185;-77
2021/05/08 03:16:04;;;;;;;9.67;6.60;;;;;;;3.95;85.88;98985.44;4735169;29;102965;-76
2021/05/08 03:18:31;;;;;;;7.83;6.50;;;;;;;3.80;86.35;98973.84;4739517;29;103359;-77
2021/05/08 03:21:00;;;;;;;7.87;7.07;;;;;;;3.63;87.41;98972.81;4733265;29;105914;-76
2021/05/08 03:23:27;;;;;;;7.63;6.23;;;;;;;3.51;88.53;98976.78;4735102;29;102939;-76
2021/05/08 03:25:55;;;;;;;5.73;4.83;;;;;;;3.66;88.12;98978.78;4734518;29;103333;-77
2021/05/08 03:28:22;;;;;;;6.83;6.13;;;;;;;3.66;87.11;98976.16;4734353;29;104279;-76
2021/05/08 03:30:49;;;;;;;8.00;7.20;;;;;;;3.54;86.86;98974.03;4718651;29;103770;-78
2021/05/08 03:33:16;;;;;;;8.37;7.47;;;;;;;3.49;87.56;98971.63;4718443;29;103191;-82
2021/05/08 03:35:43;;;;;;;7.20;6.50;;;;;;;3.24;89.57;98959.56;4739618;29;103133;-87
2021/05/08 03:38:12;;;;;;;7.40;6.70;;;;;;;3.38;89.07;98967.72;4742404;29;103264;-86
2021/05/08 03:40:39;;;;;;;8.30;6.70;;;;;;;3.44;88.96;98970.09;4737918;29;103440;-87
2021/05/08 03:43:06;;;;;;;11.13;6.70;;;;;;;3.44;88.34;98977.94;4736876;29;102732;-88
2021/05/08 03:45:35;;;;;;;7.87;7.17;;;;;;;3.54;88.48;98971.44;4736222;29;106300;-88
2021/05/08 03:48:04;;;;;;;8.50;6.77;;;;;;;3.33;89.64;98975.75;4738022;29;104379;-87
2021/05/08 03:50:32;;;;;;;8.30;7.37;;;;;;;3.23;89.48;98979.59;4735233;29;103414;-88
2021/05/08 03:52:59;;;;;;;9.03;7.13;;;;;;;3.21;89.29;98975.34;4741843;29;102890;-87
2021/05/08 03:55:27;;;;;;;8.17;6.53;;;;;;;3.14;90.21;98974.75;4738208;29;107140;-88
2021/05/08 03:57:56;;;;;;;7.20;6.30;;;;;;;3.20;90.71;98971.88;4736704;29;103951;-86
2021/05/08 04:00:23;;;;;;;8.33;7.20;;;;;;;3.10;90.00;98974.91;4737728;29;104846;-87
2021/05/08 04:02:50;;;;;;;7.90;7.10;;;;;;;3.03;91.06;98976.06;4742963;29;102995;-88
2021/05/08 04:05:17;;;;;;;9.07;7.33;;;;;;;2.96;91.48;98970.22;4737724;29;105824;-88
2021/05/08 04:07:44;;;;;;;8.03;7.23;;;;;;;3.00;91.43;98977.03;4720965;29;103844;-87
2021/05/08 04:10:12;;;;;;;7.90;7.10;;;;;;;3.09;90.59;98976.66;4740538;29;103143;-89
2021/05/08 04:12:40;;;;;;;10.20;6.73;;;;;;;2.97;91.22;98976.28;4742093;29;103255;-88
2021/05/08 04:15:07;;;;;;;8.70;7.13;;;;;;;3.17;90.50;98968.56;4737883;29;103021;-88
2021/05/08 04:17:34;;;;;;;8.17;6.70;;;;;;;3.24;89.05;98970.03;4738030;29;104499;-85
2021/05/08 04:20:01;;;;;;;11.47;7.97;;;;;;;3.09;90.32;98960.19;4726984;29;105351;-82
2021/05/08 04:22:28;;;;;;;7.80;7.00;;;;;;;3.08;90.32;98961.94;4738635;29;102997;-84
2021/05/08 04:24:55;;;;;;;10.27;7.30;;;;;;;2.93;91.16;98965.97;4738372;29;103797;-85
2021/05/08 04:27:22;;;;;;;8.60;6.90;;;;;;;3.14;90.71;98968.69;4733506;29;103864;-86
2021/05/08 04:29:51;;;;;;;8.77;6.73;;;;;;;3.20;90.58;98960.63;4737502;29;104224;-85
2021/05/08 04:32:18;;;;;;;9.27;6.50;;;;;;;3.35;89.87;98967.84;4743115;29;103022;-87
2021/05/08 04:34:45;;;;;;;7.20;6.17;;;;;;;3.38;89.33;98963.34;4735346;29;103066;-85
2021/05/08 04:37:12;;;;;;;5.67;5.07;;;;;;;3.60;88.45;98965.09;4743888;29;104458;-86
2021/05/08 04:39:39;;;;;;;7.00;6.30;;;;;;;3.71;87.98;98963.78;4740562;29;104670;-83
2021/05/08 04:42:07;;;;;;;6.80;5.73;;;;;;;3.90;87.07;98966.50;4735836;29;102985;-89
2021/05/08 04:44:34;;;;;;;7.50;6.17;;;;;;;3.93;87.02;98956.75;4738270;29;103105;-82
2021/05/08 04:47:03;;;;;;;6.70;5.97;;;;;;;3.98;86.56;98957.44;4738306;29;104742;-79
2021/05/08 04:49:30;;;;;;;6.63;5.53;;;;;;;3.98;86.76;98954.81;4741908;29;110283;-82
2021/05/08 04:51:57;;;;;;;6.47;5.67;;;;;;;4.05;86.42;98961.47;4737019;29;103016;-83
2021/05/08 04:54:25;;;;;;;7.87;6.00;;;;;;;4.13;85.72;98957.69;4742212;29;102865;-79
2021/05/08 04:56:52;;;;;;;6.03;5.43;;;;;;;4.28;85.93;98954.41;4736925;29;104565;-83
2021/05/08 04:59:19;;;;;;;5.63;5.13;;;;;;;4.35;85.76;98956.69;4720829;29;106849;-85
2021/05/08 05:01:46;;;;;;;9.53;6.40;;;;;;;4.38;85.65;98953.94;4736772;29;105834;-86
2021/05/08 05:04:14;;;;;;;10.63;7.00;;;;;;;4.33;85.47;98957.69;4737362;29;102906;-87
2021/05/08 05:06:41;;;;;;;7.60;6.27;;;;;;;4.37;84.52;98962.72;4739745;29;104542;-87
2021/05/08 05:09:08;;;;;;;8.17;6.83;;;;;;;4.48;85.05;98962.25;4737018;29;103294;-85
2021/05/08 05:11:35;;;;;;;6.70;6.10;;;;;;;4.55;84.44;98961.06;4738326;29;103029;-87
2021/05/08 05:14:03;;;;;;;7.00;6.30;;;;;;;4.51;84.90;98956.88;4735765;29;103218;-87
2021/05/08 05:16:30;;;;;;;5.83;5.33;;;;;;;4.67;84.47;98956.16;4737239;29;104049;-86
2021/05/08 05:18:57;;;;;;;6.80;6.10;;;;;;;4.68;83.89;98960.47;4743114;29;106943;-85
2021/05/08 05:21:25;;;;;;;8.53;5.93;;;;;;;4.85;84.18;98953.63;4736295;29;102603;-75
2021/05/08 05:23:53;;;;;;;8.00;6.47;;;;;;;5.09;84.07;98948.09;4738537;29;105819;-79
2021/05/08 05:26:19;;;;;;;5.97;5.30;;;;;;;5.05;83.27;98961.44;4734732;29;103900;-74
2021/05/08 05:28:47;;;;;;;7.27;6.57;;;;;;;5.14;82.66;98967.06;4735853;29;104032;-75
2021/05/08 05:31:18;;;;;;;8.37;6.83;;;;;;;5.36;81.98;98963.47;4731404;29;103047;-79
2021/05/08 05:33:45;;;;;;;7.73;6.20;;;;;;;5.38;81.62;98959.84;4733979;29;103033;-76
2021/05/08 05:36:12;;;;;;;7.03;6.33;;;;;;;5.41;81.13;98964.09;4736680;29;104026;-75
2021/05/08 05:38:41;;;;;;;7.40;6.03;;;;;;;5.53;80.79;98964.34;4734714;29;103735;-78
2021/05/08 05:41:08;;;;;;;10.03;6.50;;;;;;;5.66;80.66;98964.63;4734463;29;103355;-76
2021/05/08 05:43:35;;;;;;;5.60;5.07;;;;;;;5.84;80.42;98963.72;4735394;29;103491;-76
2021/05/08 05:46:02;;;;;;;6.07;5.27;;;;;;;5.91;79.54;98967.78;4739616;29;103727;-78
2021/05/08 05:48:29;;;;;;;8.57;6.30;;;;;;;5.95;78.36;98961.44;4744922;29;104152;-77
2021/05/08 05:50:56;;;;;;;6.17;5.57;;;;;;;6.08;77.53;98962.56;4725880;29;103396;-75
2021/05/08 05:53:23;;;;;;;6.73;6.13;;;;;;;6.24;78.26;98973.13;4752602;29;102768;-78
2021/05/08 05:55:51;;;;;;;11.07;6.17;;;;;;;6.19;77.67;98960.25;4752601;29;105827;-75
2021/05/08 05:58:18;;;;;;;6.20;5.60;;;;;;;6.21;77.42;98958.38;4743691;29;104533;-76
2021/05/08 06:00:45;;;;;;;8.93;6.43;;;;;;;6.26;77.05;98956.38;4744097;29;103411;-76
2021/05/08 06:03:12;;;;;;;6.30;5.60;;;;;;;6.39;77.17;98952.22;4738892;29;103873;-75
2021/05/08 06:05:39;;;;;;;7.87;7.07;;;;;;;6.54;76.46;98955.78;4738356;29;104525;-75
2021/05/08 06:08:10;;;;;;;7.10;6.37;;;;;;;6.67;77.31;98956.88;4738178;29;104274;-76
2021/05/08 06:10:37;;;;;;;7.03;5.53;;;;;;;6.58;76.10;98948.63;4740292;29;103258;-75
2021/05/08 06:13:05;;;;;;;6.73;5.67;;;;;;;6.72;75.83;98956.63;4734875;29;102839;-74
2021/05/08 06:15:35;;;;;;;6.30;5.53;;;;;;;6.55;74.42;98961.91;4735967;29;103197;-74
2021/05/08 06:18:02;;;;;;;6.20;5.50;;;;;;;6.83;74.68;98970.03;4738967;29;103244;-76
2021/05/08 06:20:30;;;;;;;5.83;5.23;;;;;;;6.97;74.68;98959.63;4737011;29;103169;-75
2021/05/08 06:22:57;;;;;;;6.33;5.23;;;;;;;7.17;73.97;98956.78;4733979;29;103044;-77
2021/05/08 06:25:24;;;;;;;6.30;5.73;;;;;;;7.26;74.23;98956.28;4732016;29;104037;-75
2021/05/08 06:27:53;;;;;;;6.90;6.07;;;;;;;7.23;73.11;98958.22;4734477;29;111002;-75
2021/05/08 06:30:21;;;;;;;6.63;6.03;;;;;;;7.22;72.56;98952.13;4733082;29;103091;-75
2021/05/08 06:32:49;;;;;;;6.23;5.63;;;;;;;7.34;72.64;98958.50;4742517;29;102914;-75
2021/05/08 06:35:16;;;;;;;6.10;5.60;;;;;;;7.53;72.03;98960.00;4739470;29;103810;-74
2021/05/08 06:37:43;;;;;;;7.20;5.87;;;;;;;7.72;71.32;98965.06;4738568;29;103775;-75
2021/05/08 06:40:10;;;;;;;9.40;5.83;;;;;;;7.83;71.11;98956.59;4736254;29;107470;-74
2021/05/08 06:42:37;;;;;;;6.10;5.60;;;;;;;7.79;70.63;98961.19;4736415;29;103010;-77
2021/05/08 06:45:05;;;;;;;8.13;5.57;;;;;;;7.94;70.15;98957.66;4736465;29;104066;-74
2021/05/08 06:47:33;;;;;;;6.47;5.80;;;;;;;7.94;70.76;98957.66;4736446;29;104592;-76
2021/05/08 06:50:00;;;;;;;6.13;5.57;;;;;;;8.41;70.90;98954.94;4726492;29;103237;-74
2021/05/08 06:52:27;;;;;;;6.50;5.33;;;;;;;8.70;68.47;98950.56;4724810;29;103257;-77
2021/05/08 06:54:54;;;;;;;6.70;5.90;;;;;;;8.68;68.82;98942.72;4744979;29;104120;-87
2021/05/08 06:57:21;;;;;;;7.33;5.60;;;;;;;8.87;68.52;98946.88;4718538;29;103466;-85
2021/05/08 06:59:49;;;;;;;5.90;5.30;;;;;;;8.80;67.93;98935.88;4735770;29;103359;-75
2021/05/08 07:02:16;;;;;;;6.87;5.70;;;;;;;8.87;67.55;98939.00;4739601;29;103325;-77
2021/05/08 07:04:44;;;;;;;6.20;5.60;;;;;;;8.97;67.08;98934.81;4736263;29;103931;-78
2021/05/08 07:07:11;;;;;;;5.87;4.80;;;;;;;9.27;67.39;98925.00;4738378;29;105420;-71
2021/05/08 07:09:39;;;;;;;5.03;4.47;;;;;;;9.42;65.19;98928.44;4735676;29;103246;-74
2021/05/08 07:12:07;;;;;;;4.83;4.13;;;;;;;9.94;66.20;98923.28;4735266;29;104726;-76
2021/05/08 07:14:34;;;;;;;6.70;5.07;;;;;;;9.89;65.05;98924.41;4736893;29;104457;-82
2021/05/08 07:17:01;;;;;;;7.37;4.90;;;;;;;9.93;64.02;98916.31;4741859;29;103652;-80
2021/05/08 07:19:28;;;;;;;5.50;4.97;;;;;;;10.16;62.83;98911.19;4741714;29;103039;-79
2021/05/08 07:21:58;;;;;;;5.03;4.50;;;;;;;10.32;61.81;98913.66;4741401;29;103085;-77
2021/05/08 07:24:25;;;;;;;6.20;4.43;;;;;;;10.45;62.22;98911.88;4738792;29;104022;-77
2021/05/08 07:26:52;;;;;;;6.50;4.47;;;;;;;10.67;61.29;98917.38;4740291;29;103927;-74
2021/05/08 07:29:19;;;;;;;4.90;4.40;;;;;;;11.18;59.84;98912.00;4741016;29;103112;-76
2021/05/08 07:31:46;;;;;;;8.30;4.97;;;;;;;11.34;59.47;98908.16;4739986;29;103396;-74
2021/05/08 07:34:13;;;;;;;5.43;4.20;;;;;;;11.97;58.98;98912.38;4742959;29;113256;-75
2021/05/08 07:36:40;;;;;;;4.90;3.80;;;;;;;11.89;58.16;98918.25;4733615;29;105488;-74
2021/05/08 07:39:08;;;;;;;4.93;4.43;;;;;;;11.95;57.27;98915.16;4740452;29;102991;-75
2021/05/08 07:41:36;;;;;;;4.63;3.67;;;;;;;12.13;56.73;98913.75;4724238;29;103188;-74
2021/05/08 07:44:04;;;;;;;4.33;3.93;;;;;;;12.25;57.20;98901.41;4740185;29;110653;-74
2021/05/08 07:46:31;;;;;;;4.87;4.37;;;;;;;12.62;55.07;98900.28;4740505;29;103725;-74
2021/05/08 07:48:58;;;;;;;6.50;4.57;;;;;;;12.99;56.47;98895.59;4740421;29;103361;-74
2021/05/08 07:51:26;;;;;;;4.43;3.63;;;;;;;13.20;54.95;98895.72;4738219;29;103646;-75
2021/05/08 07:53:53;;;;;;;4.67;4.10;;;;;;;13.10;55.83;98890.31;4747000;29;105077;-74
2021/05/08 07:56:22;;;;;;;4.97;4.03;;;;;;;13.15;54.33;98893.44;4740718;29;103700;-76
2021/05/08 07:58:49;;;;;;;5.43;4.43;;;;;;;13.24;55.07;98898.03;4740673;29;103135;-75
2021/05/08 08:01:19;;;;;;;4.97;3.80;;;;;;;13.49;52.64;98896.88;4737623;29;103347;-75
2021/05/08 08:03:46;;;;;;;4.63;3.20;;;;;;;13.68;52.64;98898.88;4740355;29;105655;-76
2021/05/08 08:06:13;;;;;;;4.10;2.87;;;;;;;14.01;53.63;98904.06;4740688;29;103811;-76
2021/05/08 08:08:40;;;;;;;3.83;3.47;;;;;;;14.44;52.07;98898.69;4733614;29;103145;-75
2021/05/08 08:11:08;;;;;;;4.13;3.80;;;;;;;14.15;51.15;98893.13;4739940;29;103190;-76
2021/05/08 08:13:36;;;;;;;4.67;3.70;;;;;;;14.25;50.23;98896.72;4731316;29;104457;-75
2021/05/08 08:16:04;;;;;;;3.40;3.07;;;;;;;15.23;49.87;98895.31;4739975;29;104337;-75
2021/05/08 08:18:31;;;;;;;4.10;3.10;;;;;;;15.44;50.24;98897.88;4745042;29;103328;-76
2021/05/08 08:20:58;;;;;;;3.40;3.10;;;;;;;15.81;48.07;98898.94;4738656;29;103507;-76
2021/05/08 08:23:25;;;;;;;3.43;3.13;;;;;;;15.83;47.62;98896.16;4747328;29;104028;-75
2021/05/08 08:25:55;;;;;;;3.13;2.50;;;;;;;16.17;47.10;98887.59;4736781;29;104725;-75
2021/05/08 08:28:23;;;;;;;2.73;2.47;;;;;;;16.34;46.77;98891.38;4731289;29;103313;-75
2021/05/08 08:30:53;;;;;;;3.97;2.87;;;;;;;16.93;46.46;98892.94;4736891;29;103067;-74
2021/05/08 08:33:21;;;;;;;3.20;2.63;;;;;;;17.17;46.02;98894.13;4735672;29;104140;-78
2021/05/08 08:35:48;;;;;;;3.47;2.77;;;;;;;16.80;46.42;98883.44;4741707;29;111826;-79
2021/05/08 08:38:16;;;;;;;4.43;3.07;;;;;;;16.51;46.62;98889.78;4748594;29;102593;-79
2021/05/08 08:40:44;;;;;;;3.83;2.73;;;;;;;17.39;46.00;98893.72;4737651;29;103792;-75
2021/05/08 08:43:12;;;;;;;2.73;2.50;;;;;;;16.05;45.26;98885.22;4737338;29;103907;-74
2021/05/08 08:45:43;;;;;;;2.60;2.40;;;;;;;17.04;45.92;98880.25;4751218;29;105401;-76
2021/05/08 08:48:12;;;;;;;4.00;2.77;;;;;;;17.39;45.28;98883.03;4737373;29;103234;-74
2021/05/08 08:50:40;;;;;;;3.30;2.40;;;;;;;17.50;43.96;98878.47;4737778;29;102635;-74
2021/05/08 08:53:09;;;;;;;4.47;3.10;;;;;;;17.59;43.82;98872.25;4741172;29;103496;-74
2021/05/08 08:55:41;;;;;;;2.80;2.23;;;;;;;18.05;46.65;98868.56;4754970;29;104242;-74
2021/05/08 08:58:09;;;;;;;3.37;2.63;;;;;;;16.97;44.63;98864.97;4741261;29;102976;-76
2021/05/08 09:00:36;;;;;;;2.60;2.40;;;;;;;16.43;45.90;98858.53;4729284;29;102755;-78
2021/05/08 09:03:03;;;;;;;5.70;2.37;;;;;;;17.87;44.80;98853.38;4733858;29;111955;-77
2021/05/08 09:05:32;;;;;;;4.20;2.60;;;;;;;18.10;44.04;98855.56;4736914;29;104815;-74
2021/05/08 09:08:00;;;;;;;3.35;2.47;;;;;;;17.40;44.66;98851.84;4738130;29;103498;-74
2021/05/08 09:10:29;;;;;;;2.33;1.92;;;;;;;16.90;43.63;98853.22;4745255;29;103121;-76
2021/05/08 09:12:58;;;;;;;3.05;1.88;;;;;;;17.46;42.22;98847.72;4736913;29;105789;-74
2021/05/08 09:15:30;;;;;;;2.63;1.80;;;;;;;17.98;41.88;98841.59;4742658;29;103917;-74
2021/05/08 09:17:57;;;;;;;1.98;1.55;;;;;;;17.68;42.94;98850.00;4745633;29;102905;-74
2021/05/08 09:20:24;;;;;;;2.10;1.90;;;;;;;17.75;43.46;98840.38;4736897;29;102904;-78
2021/05/08 09:22:52;;;;;;;2.55;1.55;;;;;;;17.50;42.76;98836.59;4737699;29;104883;-82
2021/05/08 09:25:20;;;;;;;3.00;1.80;;;;;;;17.37;41.72;98836.13;4737512;29;105096;-79
2021/05/08 09:27:49;;;;;;;3.53;1.38;;;;;;;17.03;43.08;98829.69;4737093;29;102940;-81
2021/05/08 09:30:24;;;;;;;1.67;1.52;;;;;;;17.30;42.64;98824.34;4732035;29;103069;-82
2021/05/08 09:33:02;;;;;;;4.82;1.73;;;;;;;16.70;42.02;98823.94;4721563;29;104494;-84
2021/05/08 09:35:33;;;;;;;2.65;1.60;;;;;;;17.17;41.12;98821.19;4730544;29;103738;-83
2021/05/08 09:38:09;;;;;;;2.85;1.73;;;;;;;17.82;41.09;98818.22;4744351;29;103436;-83
2021/05/08 09:40:41;;;;;;;3.35;1.35;;;;;;;17.91;41.48;98811.94;4737375;29;103269;-83
2021/05/08 09:43:12;;;;;;;2.10;1.77;;;;;;;17.32;41.71;98817.00;4736529;29;103645;-83
2021/05/08 09:45:41;;;;;;;1.80;1.40;;;;;;;17.59;42.54;98816.16;4737876;29;104037;-82
2021/05/08 09:48:18;;;;;;;2.35;1.42;;;;;;;17.88;40.84;98806.91;4720574;29;103006;-82
2021/05/08 09:51:16;;;;;;;3.22;1.77;;;;;;;17.43;41.33;98814.16;4735160;29;102868;-80
2021/05/08 09:53:44;;;;;;;1.85;1.40;;;;;;;17.73;41.67;98808.47;4729973;29;104107;-83
2021/05/08 09:56:33;;;;;;;2.78;2.05;;;;;;;17.28;42.74;98803.16;4736691;29;103452;-78
2021/05/08 09:59:22;;;;;;;2.78;1.90;;;;;;;17.82;43.45;98804.03;4718408;29;103588;-78
2021/05/08 10:01:49;;;;;;;4.30;1.52;;;;;;;16.90;44.48;98802.53;4745137;29;103504;-80
2021/05/08 10:04:26;;;;;;;3.92;1.70;;;;;;;18.18;43.45;98803.00;4723461;29;103688;-79
2021/05/08 10:07:12;;;;;;;4.22;1.88;;;;;;;18.25;42.09;98797.84;4736459;29;103204;-79
2021/05/08 10:09:42;;;;;;;2.38;2.00;;;;;;;18.35;41.15;98791.41;4733312;29;102972;-83
2021/05/08 10:12:10;;;;;;;2.83;1.60;;;;;;;18.41;39.22;98790.75;4735570;29;103235;-79
2021/05/08 10:14:38;;;;;;;1.83;1.60;;;;;;;18.62;38.35;98787.75;4727285;29;103984;-81
2021/05/08 10:17:18;;;;;;;2.47;1.52;;;;;;;18.73;37.98;98787.47;4742352;29;104081;-79
2021/05/08 10:19:47;;;;;;;2.00;1.48;;;;;;;18.82;38.35;98777.63;4735277;29;104558;-80
2021/05/08 10:22:15;;;;;;;1.83;1.40;;;;;;;18.93;37.66;98778.19;4735925;29;104230;-78
2021/05/08 10:24:45;;;;;;;2.35;1.77;;;;;;;18.92;40.26;98778.34;4741425;29;103964;-80
2021/05/08 10:27:12;;;;;;;3.70;1.33;;;;;;;19.34;37.87;98770.28;4734429;29;103929;-81
2021/05/08 10:29:42;;;;;;;1.80;1.40;;;;;;;19.37;36.56;98773.47;4728939;29;102741;-77
2021/05/08 10:32:12;;;;;;;2.35;1.38;;;;;;;20.01;35.95;98761.16;4736715;29;103261;-84
2021/05/08 10:34:51;;;;;;;2.35;1.38;;;;;;;19.76;35.57;98757.63;4741496;29;103967;-75
2021/05/08 10:37:19;;;;;;;2.15;1.75;;;;;;;19.26;39.22;98754.19;4743623;29;103956;-87
2021/05/08 10:39:50;;;;;;;1.83;1.40;;;;;;;19.44;39.69;98752.25;4735513;29;103118;-84
2021/05/08 10:42:34;;;;;;;2.38;1.67;;;;;;;19.85;38.40;98742.38;4736409;29;102863;-80
2021/05/08 10:45:03;;;;;;;2.90;1.75;;;;;;;20.10;39.61;98742.19;4735885;29;104216;-76
2021/05/08 10:48:07;;;;;;;3.00;1.88;;;;;;;19.61;38.33;98733.34;4735376;29;103457;-74
2021/05/08 10:50:42;;;;;;;2.72;1.58;;;;;;;20.18;38.09;98730.63;4738801;29;103418;-77
2021/05/08 10:53:11;;;;;;;1.50;1.27;;;;;;;20.38;38.51;98736.50;4739627;29;103273;-77
2021/05/08 10:55:47;;;;;;;2.13;1.70;;;;;;;20.41;37.10;98723.53;4735462;29;104676;-73
2021/05/08 10:58:37;;;;;;;1.88;1.48;;;;;;;19.86;37.65;98728.81;4735701;29;103800;-74
2021/05/08 11:01:09;;;;;;;2.08;1.40;;;;;;;19.96;38.97;98716.06;4743542;29;103230;-73
2021/05/08 11:04:03;;;;;;;1.58;1.48;;;;;;;20.17;36.51;98713.69;4743990;29;103241;-82
2021/05/08 11:06:30;;;;;;;1.98;1.75;;;;;;;20.07;37.27;98706.84;4735849;29;104088;-78
2021/05/08 11:08:57;;;;;;;2.17;1.40;;;;;;;20.20;38.89;98697.25;4735943;29;103729;-80
2021/05/08 11:11:44;;;;;;;5.10;1.30;;;;;;;20.27;39.06;98701.97;4735385;29;103179;-77
2021/05/08 11:14:12;;;;;;;1.73;1.48;;;;;;;20.26;37.58;98698.47;4735406;29;103001;-78
2021/05/08 11:16:55;;;;;;;3.03;1.80;;;;;;;19.68;36.64;98702.19;4736208;29;103958;-80
2021/05/08 11:19:25;;;;;;;3.17;1.85;;;;;;;19.77;39.16;98697.66;4733816;29;103327;-78
2021/05/08 11:22:16;;;;;;;5.03;1.75;;;;;;;19.74;38.15;98692.63;4736120;29;103354;-76
2021/05/08 11:24:43;;;;;;;2.47;1.55;;;;;;;20.29;38.33;98689.22;4740211;29;103108;-75
2021/05/08 11:27:28;;;;;;;2.47;1.50;;;;;;;20.35;37.37;98677.81;4735642;29;104634;-77
2021/05/08 11:30:11;;;;;;;4.88;1.83;;;;;;;19.95;36.33;98676.03;4735885;29;103744;-79
2021/05/08 11:32:48;;;;;;;1.90;1.30;;;;;;;21.00;37.24;98673.78;4744745;29;103180;-85
2021/05/08 11:35:28;;;;;;;1.70;1.20;;;;;;;20.06;36.36;98668.47;4737994;29;102987;-86
2021/05/08 11:38:21;;;;;;;3.83;1.65;;;;;;;19.34;40.21;98676.53;4743842;29;104005;-88